Time;durP1;ratioP1;P1;durP2;ratioP2;P2;SDS_P1;SDS_P2;PMS_P1;PMS_P2;Temp;Humidity;BMP_temperature;BMP_pressure;BME280_temperature;BME280_humidity;BME280_pressure;Samples;Min_cycle;Max_cycle;Signal;HPM_P1;HPM_P2
2020/12/24 00:00:45;;;;;;;34.37;17.23;;;;;;;2.48;100.00;96105.91;5070344;28;20194;-66
2020/12/24 00:03:12;;;;;;;35.23;17.07;;;;;;;2.37;100.00;96104.16;5070699;28;20265;-67
2020/12/24 00:05:40;;;;;;;32.67;18.20;;;;;;;2.30;100.00;96106.06;5070334;28;20229;-68
2020/12/24 00:08:06;;;;;;;39.37;19.60;;;;;;;2.11;100.00;96109.75;5070426;28;20812;-67
2020/12/24 00:10:33;;;;;;;42.43;21.40;;;;;;;2.07;100.00;96113.78;5070570;28;20198;-66
2020/12/24 00:13:00;;;;;;;46.90;24.63;;;;;;;1.99;100.00;96111.56;5070446;28;20234;-66
2020/12/24 00:15:27;;;;;;;43.07;23.07;;;;;;;1.97;100.00;96113.56;5070291;28;20289;-67
2020/12/24 00:17:55;;;;;;;46.63;22.33;;;;;;;1.82;100.00;96108.09;5070485;28;20194;-67
2020/12/24 00:20:22;;;;;;;46.17;24.17;;;;;;;1.85;100.00;96111.00;5070350;28;20264;-68
2020/12/24 00:22:49;;;;;;;57.77;27.73;;;;;;;1.90;100.00;96115.44;5070365;28;20214;-68
2020/12/24 00:25:16;;;;;;;51.77;27.90;;;;;;;1.91;100.00;96109.31;5070139;28;20217;-66
2020/12/24 00:27:43;;;;;;;65.13;34.03;;;;;;;1.95;100.00;96115.56;5070081;28;20674;-66
2020/12/24 00:30:12;;;;;;;83.43;41.33;;;;;;;1.99;100.00;96109.00;5070382;28;20191;-67
2020/12/24 00:32:39;;;;;;;96.37;46.20;;;;;;;1.97;100.00;96119.47;5070226;28;20192;-68
2020/12/24 00:35:07;;;;;;;106.13;48.60;;;;;;;2.04;100.00;96116.81;5070007;28;20215;-65
2020/12/24 00:37:34;;;;;;;105.33;46.47;;;;;;;1.99;100.00;96112.31;5070285;28;20257;-66
2020/12/24 00:40:00;;;;;;;92.93;42.90;;;;;;;1.99;100.00;96109.00;5069943;28;20266;-67
2020/12/24 00:42:27;;;;;;;86.60;39.27;;;;;;;1.99;100.00;96116.69;5069855;28;20228;-68
2020/12/24 00:44:54;;;;;;;104.20;45.10;;;;;;;1.95;100.00;96116.34;5069843;28;20266;-66
2020/12/24 00:47:21;;;;;;;90.73;40.43;;;;;;;1.86;100.00;96111.78;5070340;28;20225;-66
2020/12/24 00:49:48;;;;;;;116.23;47.07;;;;;;;1.88;100.00;96113.13;5070151;28;20194;-68
2020/12/24 00:52:16;;;;;;;153.80;52.87;;;;;;;2.00;100.00;96113.09;5070083;28;20204;-66
2020/12/24 00:54:43;;;;;;;90.77;41.73;;;;;;;1.92;100.00;96116.00;5069819;28;20247;-66
2020/12/24 00:57:11;;;;;;;77.43;37.40;;;;;;;1.91;100.00;96119.56;5072903;28;20282;-67
2020/12/24 00:59:38;;;;;;;77.70;36.97;;;;;;;2.25;100.00;96121.34;5073981;28;20202;-67
2020/12/24 01:02:05;;;;;;;73.63;34.03;;;;;;;2.29;100.00;96122.44;5074056;28;20197;-66
2020/12/24 01:04:32;;;;;;;81.33;35.60;;;;;;;2.28;100.00;96115.00;5073772;28;20250;-66
2020/12/24 01:06:58;;;;;;;51.10;27.20;;;;;;;2.18;100.00;96115.56;5073960;28;20189;-66
2020/12/24 01:09:26;;;;;;;63.67;29.80;;;;;;;2.20;100.00;96110.97;5073893;28;20198;-66
2020/12/24 01:11:53;;;;;;;71.23;31.00;;;;;;;2.11;100.00;96107.97;5073850;28;20198;-63
2020/12/24 01:14:20;;;;;;;52.00;25.93;;;;;;;2.01;100.00;96104.41;5073906;28;20249;-67
2020/12/24 01:16:47;;;;;;;44.67;23.63;;;;;;;1.97;100.00;96111.78;5073753;28;20209;-65
2020/12/24 01:19:13;;;;;;;74.37;29.27;;;;;;;1.91;100.00;96104.97;5073881;28;20673;-67
2020/12/24 01:21:46;;;;;;;49.33;24.80;;;;;;;1.94;100.00;96094.31;5073572;28;20202;-68
2020/12/24 01:24:14;;;;;;;57.67;28.20;;;;;;;1.78;100.00;96099.31;5073671;28;20198;-66
2020/12/24 01:26:48;;;;;;;61.33;29.20;;;;;;;1.82;100.00;96096.06;5073650;28;20233;-67
2020/12/24 01:29:14;;;;;;;135.23;58.63;;;;;;;1.93;100.00;96087.63;5073827;28;20201;-66
2020/12/24 01:31:45;;;;;;;202.87;87.23;;;;;;;1.82;100.00;96087.59;5073376;28;20202;-66
2020/12/24 01:34:12;;;;;;;95.27;46.57;;;;;;;1.79;100.00;96093.19;5073458;28;20251;-67
2020/12/24 01:36:39;;;;;;;88.07;41.00;;;;;;;1.65;100.00;96088.25;5073246;28;20211;-66
2020/12/24 01:39:06;;;;;;;100.37;45.47;;;;;;;1.42;100.00;96084.91;5073388;28;20200;-65
2020/12/24 01:41:33;;;;;;;163.00;61.60;;;;;;;1.38;100.00;96084.59;5073324;28;20204;-67
2020/12/24 01:44:01;;;;;;;123.37;54.40;;;;;;;1.37;100.00;96082.22;5073196;28;20235;-67
2020/12/24 01:46:28;;;;;;;262.10;115.87;;;;;;;1.41;100.00;96075.66;5073149;28;20246;-67
2020/12/24 01:48:55;;;;;;;207.93;89.40;;;;;;;1.35;100.00;96077.31;5073016;28;20247;-65
2020/12/24 01:51:27;;;;;;;119.50;52.47;;;;;;;1.36;100.00;96080.66;5073318;28;20190;-66
2020/12/24 01:53:57;;;;;;;130.77;52.77;;;;;;;1.34;100.00;96073.22;5073214;28;20645;-66
2020/12/24 01:56:24;;;;;;;159.17;66.37;;;;;;;1.32;100.00;96070.09;5073084;28;20207;-67
2020/12/24 01:58:52;;;;;;;165.83;65.07;;;;;;;1.28;100.00;96074.09;5072918;28;20202;-66
2020/12/24 02:01:20;;;;;;;167.63;59.00;;;;;;;1.33;100.00;96079.34;5072950;28;20198;-67
2020/12/24 02:03:47;;;;;;;214.07;57.10;;;;;;;1.33;100.00;96070.88;5073258;28;20204;-67
2020/12/24 02:06:15;;;;;;;188.00;59.87;;;;;;;1.31;100.00;96068.53;5072878;28;20225;-66
2020/12/24 02:08:42;;;;;;;305.90;69.10;;;;;;;1.36;100.00;96071.22;5071557;28;20272;-67
2020/12/24 02:11:09;;;;;;;282.73;64.10;;;;;;;1.27;100.00;96070.75;5072621;28;20609;-65
2020/12/24 02:13:36;;;;;;;395.07;80.03;;;;;;;1.36;100.00;96071.22;5072605;28;20193;-67
2020/12/24 02:16:04;;;;;;;346.33;68.43;;;;;;;1.41;100.00;96066.19;5072563;28;20717;-66
2020/12/24 02:18:31;;;;;;;262.70;65.77;;;;;;;1.37;100.00;96072.78;5072792;28;20194;-65
2020/12/24 02:20:59;;;;;;;299.20;65.93;;;;;;;1.42;100.00;96065.22;5072813;28;20192;-66
2020/12/24 02:23:26;;;;;;;301.93;70.53;;;;;;;1.39;100.00;96070.78;5072840;28;20544;-67
2020/12/24 02:25:53;;;;;;;157.73;62.90;;;;;;;1.38;100.00;96061.53;5072339;28;20359;-66
2020/12/24 02:28:20;;;;;;;342.30;77.97;;;;;;;1.35;100.00;96069.66;5072328;28;20705;-66
2020/12/24 02:30:46;;;;;;;272.53;70.30;;;;;;;1.33;100.00;96065.75;5072317;28;20638;-66
2020/12/24 02:33:13;;;;;;;207.03;66.83;;;;;;;1.19;100.00;96070.31;5072456;28;20194;-64
2020/12/24 02:35:40;;;;;;;236.63;62.50;;;;;;;1.17;100.00;96062.84;5072068;28;20219;-66
2020/12/24 02:38:08;;;;;;;191.33;58.87;;;;;;;1.06;100.00;96073.03;5072354;28;20197;-65
2020/12/24 02:40:35;;;;;;;268.53;59.43;;;;;;;1.10;100.00;96064.69;5072152;28;20658;-66
2020/12/24 02:43:01;;;;;;;182.43;53.53;;;;;;;0.80;100.00;96067.28;5072052;28;20231;-65
2020/12/24 02:45:28;;;;;;;167.50;53.40;;;;;;;0.79;100.00;96058.06;5071919;28;20227;-66
2020/12/24 02:47:55;;;;;;;207.10;60.57;;;;;;;0.95;100.00;96061.00;5072056;28;20193;-66
2020/12/24 02:50:22;;;;;;;181.90;55.53;;;;;;;1.03;100.00;96060.69;5071916;28;20194;-65
2020/12/24 02:52:49;;;;;;;185.17;56.20;;;;;;;1.12;100.00;96049.13;5071980;28;20203;-66
2020/12/24 02:55:17;;;;;;;198.07;62.07;;;;;;;1.06;100.00;96045.69;5071911;28;20200;-66
2020/12/24 02:57:44;;;;;;;246.73;67.27;;;;;;;1.15;100.00;96046.13;5071873;28;20199;-66
2020/12/24 03:00:12;;;;;;;254.17;72.73;;;;;;;1.15;100.00;96039.22;5072260;28;20291;-67
2020/12/24 03:02:39;;;;;;;181.90;65.77;;;;;;;1.20;100.00;96036.00;5071733;28;20197;-63
2020/12/24 03:05:07;;;;;;;219.90;61.03;;;;;;;0.98;100.00;96040.88;5071607;28;20228;-67
2020/12/24 03:07:33;;;;;;;152.97;54.97;;;;;;;1.05;100.00;96048.44;5071794;28;20195;-66
2020/12/24 03:10:00;;;;;;;228.27;64.23;;;;;;;1.16;100.00;96040.00;5071658;28;20203;-66
2020/12/24 03:12:28;;;;;;;149.53;58.13;;;;;;;1.13;100.00;96035.34;5071465;28;20245;-66
2020/12/24 03:14:55;;;;;;;124.53;54.67;;;;;;;1.15;100.00;96033.34;5071567;28;20192;-66
2020/12/24 03:17:22;;;;;;;141.97;54.97;;;;;;;1.19;100.00;96037.03;5071782;28;20279;-66
2020/12/24 03:19:49;;;;;;;230.77;61.37;;;;;;;1.24;100.00;96037.16;5071093;28;20668;-65
2020/12/24 03:22:16;;;;;;;225.10;62.40;;;;;;;1.01;100.00;96031.97;5071787;28;20192;-65
2020/12/24 03:24:43;;;;;;;156.73;56.70;;;;;;;1.08;100.00;96032.66;5071488;28;20238;-67
2020/12/24 03:27:09;;;;;;;233.97;61.93;;;;;;;1.15;100.00;96039.22;5071240;28;20196;-66
2020/12/24 03:29:37;;;;;;;250.27;61.37;;;;;;;1.16;100.00;96037.47;5071452;28;20204;-67
2020/12/24 03:32:04;;;;;;;255.93;61.60;;;;;;;1.21;100.00;96040.13;5071080;28;20198;-67
2020/12/24 03:34:31;;;;;;;187.43;50.67;;;;;;;1.23;100.00;96033.03;5070957;28;20198;-66
2020/12/24 03:36:58;;;;;;;240.13;54.93;;;;;;;1.08;100.00;96033.44;5070893;28;20722;-66
2020/12/24 03:39:24;;;;;;;245.13;57.20;;;;;;;1.02;100.00;96038.66;5070930;28;20200;-67
2020/12/24 03:41:51;;;;;;;294.20;56.37;;;;;;;1.00;100.00;96035.53;5070964;28;20193;-66
2020/12/24 03:44:18;;;;;;;192.07;47.67;;;;;;;1.01;100.00;96034.53;5070486;28;20224;-65
2020/12/24 03:46:46;;;;;;;229.23;50.10;;;;;;;1.03;100.00;96035.88;5070749;28;20241;-66
2020/12/24 03:49:13;;;;;;;186.40;51.17;;;;;;;0.98;100.00;96032.41;5071025;28;20199;-66
2020/12/24 03:51:40;;;;;;;146.13;50.33;;;;;;;0.99;100.00;96042.44;5070786;28;20197;-66
2020/12/24 03:54:07;;;;;;;202.40;48.77;;;;;;;1.04;100.00;96044.34;5070625;28;20544;-67
2020/12/24 03:56:34;;;;;;;214.93;51.80;;;;;;;0.98;100.00;96051.13;5070839;28;20580;-66
2020/12/24 03:59:00;;;;;;;115.40;43.43;;;;;;;0.98;100.00;96048.56;5070579;28;20201;-65
2020/12/24 04:01:27;;;;;;;214.17;53.53;;;;;;;1.00;100.00;96051.66;5070572;28;20192;-62
2020/12/24 04:03:55;;;;;;;141.50;46.83;;;;;;;1.03;100.00;96048.69;5070710;28;20275;-65
2020/12/24 04:06:22;;;;;;;112.97;45.50;;;;;;;1.06;100.00;96044.88;5070483;28;20228;-67
2020/12/24 04:08:49;;;;;;;124.23;47.93;;;;;;;1.11;100.00;96052.69;5070345;28;20203;-67
2020/12/24 04:11:16;;;;;;;187.80;48.57;;;;;;;1.11;100.00;96053.47;5070220;28;20683;-66
2020/12/24 04:13:42;;;;;;;137.67;45.77;;;;;;;1.24;100.00;96048.16;5070194;28;20207;-66
2020/12/24 04:16:09;;;;;;;189.10;51.80;;;;;;;1.29;100.00;96050.06;5070326;28;20195;-66
2020/12/24 04:18:36;;;;;;;169.07;47.97;;;;;;;1.32;100.00;96049.63;5070443;28;20226;-65
2020/12/24 04:21:05;;;;;;;196.83;52.67;;;;;;;1.30;100.00;96052.38;5070185;28;20211;-66
2020/12/24 04:23:31;;;;;;;150.07;48.07;;;;;;;1.32;100.00;96054.72;5070233;28;20194;-66
2020/12/24 04:25:58;;;;;;;166.33;52.97;;;;;;;1.31;100.00;96042.94;5070275;28;20223;-64
2020/12/24 04:28:25;;;;;;;210.13;53.53;;;;;;;1.35;100.00;96048.38;5070071;28;20277;-68
2020/12/24 04:30:52;;;;;;;85.97;41.57;;;;;;;1.35;100.00;96035.56;5069485;28;20267;-66
2020/12/24 04:33:19;;;;;;;196.07;51.87;;;;;;;1.38;100.00;96043.63;5069979;28;20202;-67
2020/12/24 04:35:46;;;;;;;151.50;49.20;;;;;;;1.56;100.00;96056.31;5070008;28;20211;-67
2020/12/24 04:38:13;;;;;;;126.97;51.70;;;;;;;1.48;100.00;96043.06;5070047;28;20209;-66
2020/12/24 04:40:41;;;;;;;107.23;49.83;;;;;;;1.49;100.00;96037.72;5070221;28;20202;-66
2020/12/24 04:43:08;;;;;;;106.33;52.23;;;;;;;1.49;100.00;96045.41;5069661;28;20225;-67
2020/12/24 04:45:35;;;;;;;105.67;51.70;;;;;;;1.57;100.00;96046.84;5069948;28;20707;-66
2020/12/24 04:48:02;;;;;;;92.30;46.40;;;;;;;1.60;100.00;96046.38;5069926;28;20201;-66
2020/12/24 04:50:30;;;;;;;88.13;46.33;;;;;;;1.56;100.00;96046.06;5070122;28;20198;-66
2020/12/24 04:52:57;;;;;;;95.40;46.50;;;;;;;1.62;100.00;96041.84;5070083;28;20196;-67
2020/12/24 04:55:25;;;;;;;97.60;46.67;;;;;;;1.61;100.00;96040.28;5069952;28;20193;-65
2020/12/24 04:57:52;;;;;;;76.27;40.33;;;;;;;1.64;100.00;96048.28;5070041;28;20678;-67
2020/12/24 05:00:20;;;;;;;68.30;38.27;;;;;;;1.65;100.00;96039.59;5069764;28;20195;-65
2020/12/24 05:03:07;;;;;;;77.23;40.97;;;;;;;1.70;100.00;96036.38;5069976;28;20223;-66
2020/12/24 05:05:35;;;;;;;66.80;36.83;;;;;;;1.70;100.00;96037.16;5069886;28;20293;-67
2020/12/24 05:08:03;;;;;;;67.40;39.40;;;;;;;1.66;100.00;96046.28;5070197;28;20198;-66
2020/12/24 05:10:32;;;;;;;85.40;43.70;;;;;;;1.69;100.00;96040.69;5069809;28;20196;-67
2020/12/24 05:12:59;;;;;;;85.00;41.03;;;;;;;1.63;100.00;96041.63;5070039;28;20201;-68
2020/12/24 05:15:27;;;;;;;101.70;46.10;;;;;;;1.54;100.00;96037.84;5069974;28;20283;-67
2020/12/24 05:17:55;;;;;;;96.07;45.30;;;;;;;1.41;100.00;96037.25;5070134;28;20691;-67
2020/12/24 05:20:21;;;;;;;100.57;48.53;;;;;;;1.44;100.00;96037.63;5069753;28;20196;-66
2020/12/24 05:22:48;;;;;;;120.43;55.97;;;;;;;1.41;100.00;96042.38;5069702;28;20257;-66
2020/12/24 05:25:19;;;;;;;108.73;51.50;;;;;;;1.24;100.00;96035.38;5069665;28;20196;-66
2020/12/24 05:27:56;;;;;;;114.27;53.00;;;;;;;1.23;100.00;96036.38;5069372;28;20189;-66
2020/12/24 05:30:27;;;;;;;117.50;56.27;;;;;;;1.23;100.00;96040.69;5069689;28;20204;-66
2020/12/24 05:32:54;;;;;;;102.57;50.27;;;;;;;1.30;100.00;96028.56;5069515;28;20231;-65
2020/12/24 05:35:25;;;;;;;151.93;55.60;;;;;;;1.33;100.00;96035.03;5069276;28;20229;-69
2020/12/24 05:37:52;;;;;;;176.00;59.63;;;;;;;1.40;100.00;96030.56;5069560;28;20639;-66
2020/12/24 05:40:22;;;;;;;211.50;74.83;;;;;;;1.40;100.00;96031.34;5069549;28;20189;-66
2020/12/24 05:42:55;;;;;;;217.47;70.80;;;;;;;1.42;100.00;96019.13;5071047;28;20334;-67
2020/12/24 05:45:24;;;;;;;273.83;91.83;;;;;;;1.45;100.00;96017.88;5073137;28;20256;-66
2020/12/24 05:48:10;;;;;;;255.90;83.77;;;;;;;1.41;100.00;96015.00;5073101;28;20693;-67
2020/12/24 05:50:38;;;;;;;245.53;82.23;;;;;;;1.49;100.00;96024.94;5072968;28;20201;-67
2020/12/24 05:53:06;;;;;;;306.10;83.33;;;;;;;1.52;100.00;96024.47;5072984;28;20670;-67
2020/12/24 05:55:34;;;;;;;164.13;54.07;;;;;;;1.40;100.00;96010.88;5072942;28;20617;-67
2020/12/24 05:58:02;;;;;;;176.30;54.67;;;;;;;1.39;100.00;96011.13;5073212;28;20200;-67
2020/12/24 06:00:34;;;;;;;151.30;47.60;;;;;;;1.33;100.00;96015.34;5072863;28;20663;-65
2020/12/24 06:03:12;;;;;;;212.17;50.67;;;;;;;1.14;100.00;96024.13;5072745;28;20189;-65
2020/12/24 06:05:55;;;;;;;227.23;59.27;;;;;;;1.07;100.00;96026.75;5072864;28;20228;-66
2020/12/24 06:08:24;;;;;;;169.17;51.57;;;;;;;0.90;100.00;96035.31;5072949;28;20196;-66
2020/12/24 06:11:10;;;;;;;152.27;48.40;;;;;;;0.86;100.00;96038.28;5072550;28;20193;-66
2020/12/24 06:13:40;;;;;;;207.20;54.77;;;;;;;0.84;100.00;96027.50;5072690;28;20204;-66
2020/12/24 06:16:08;;;;;;;195.87;55.10;;;;;;;0.96;100.00;96024.97;5072958;28;20257;-67
2020/12/24 06:18:37;;;;;;;164.47;52.80;;;;;;;0.97;100.00;96028.31;5072669;28;20275;-66
2020/12/24 06:21:14;;;;;;;271.43;59.40;;;;;;;1.08;100.00;96025.00;5072712;28;20225;-66
2020/12/24 06:23:46;;;;;;;200.73;56.73;;;;;;;1.16;100.00;96025.44;5072793;28;20210;-66
2020/12/24 06:26:22;;;;;;;207.17;56.77;;;;;;;1.18;100.00;96025.22;5072122;28;20232;-66
2020/12/24 06:28:55;;;;;;;196.33;54.30;;;;;;;1.24;100.00;96020.03;5072331;28;20200;-66
2020/12/24 06:31:22;;;;;;;220.63;56.87;;;;;;;1.22;100.00;96023.78;5072325;28;20204;-66
2020/12/24 06:33:49;;;;;;;199.57;56.53;;;;;;;1.23;100.00;96020.22;5072319;28;20201;-66
2020/12/24 06:36:33;;;;;;;197.20;56.07;;;;;;;1.22;100.00;96024.56;5072058;28;20832;-65
2020/12/24 06:39:00;;;;;;;272.10;62.77;;;;;;;1.30;100.00;96026.00;5072122;28;20656;-66
2020/12/24 06:41:34;;;;;;;228.13;58.03;;;;;;;1.38;100.00;96018.00;5072324;28;20192;-63
2020/12/24 06:44:02;;;;;;;194.97;53.20;;;;;;;1.50;100.00;96021.34;5072386;28;20715;-66
2020/12/24 06:46:29;;;;;;;179.63;51.07;;;;;;;1.31;100.00;96030.13;5071841;28;20228;-66
2020/12/24 06:49:03;;;;;;;145.73;49.43;;;;;;;1.22;100.00;96034.81;5072007;28;20245;-64
2020/12/24 06:51:50;;;;;;;190.30;52.70;;;;;;;1.39;100.00;96031.59;5072477;28;20188;-66
2020/12/24 06:54:21;;;;;;;132.03;46.53;;;;;;;1.57;100.00;96032.25;5071132;28;20193;-66
2020/12/24 06:56:48;;;;;;;144.53;47.97;;;;;;;1.59;100.00;96032.03;5071728;28;20203;-66
2020/12/24 06:59:23;;;;;;;167.63;47.60;;;;;;;1.63;100.00;96026.25;5071649;28;20228;-66
2020/12/24 07:02:04;;;;;;;127.87;48.87;;;;;;;1.73;100.00;96043.63;5072081;28;20189;-66
2020/12/24 07:04:39;;;;;;;251.80;71.03;;;;;;;1.64;100.00;96043.16;5071627;28;20287;-67
2020/12/24 07:07:06;;;;;;;247.70;73.80;;;;;;;1.72;100.00;96047.97;5071601;28;20356;-67
2020/12/24 07:09:45;;;;;;;291.77;80.03;;;;;;;1.66;100.00;96045.50;5071470;28;20189;-68
2020/12/24 07:12:34;;;;;;;278.47;82.80;;;;;;;1.83;100.00;96031.03;5071523;28;20643;-64
2020/12/24 07:15:24;;;;;;;221.37;82.00;;;;;;;1.78;100.00;96028.34;5071585;28;20586;-67
2020/12/24 07:17:56;;;;;;;272.80;87.10;;;;;;;1.83;100.00;96027.69;5071475;28;20193;-68
2020/12/24 07:20:25;;;;;;;204.27;69.30;;;;;;;1.95;100.00;96028.44;5071433;28;20192;-68
2020/12/24 07:22:54;;;;;;;224.60;64.90;;;;;;;2.04;100.00;96021.97;5071267;28;20690;-67
2020/12/24 07:25:22;;;;;;;132.80;58.00;;;;;;;2.03;100.00;96023.75;5071305;28;20203;-66
2020/12/24 07:27:51;;;;;;;184.73;59.23;;;;;;;2.06;100.00;96014.81;5071334;28;20195;-66
2020/12/24 07:30:21;;;;;;;301.90;70.80;;;;;;;1.92;100.00;96009.16;5071416;28;20238;-66
2020/12/24 07:32:56;;;;;;;286.47;82.13;;;;;;;2.01;100.00;96019.84;5071198;28;20218;-65
2020/12/24 07:35:23;;;;;;;228.80;92.27;;;;;;;1.99;100.00;96012.38;5071253;28;20212;-66
2020/12/24 07:37:50;;;;;;;405.17;115.07;;;;;;;1.94;100.00;96019.22;5071156;28;20685;-67
2020/12/24 07:40:29;;;;;;;456.13;111.90;;;;;;;2.07;100.00;96016.38;5071133;28;20194;-67
2020/12/24 07:43:07;;;;;;;373.23;108.47;;;;;;;2.33;100.00;96003.06;5071253;28;20226;-66
2020/12/24 07:45:34;;;;;;;389.90;88.03;;;;;;;2.39;100.00;96009.06;5070777;28;20252;-66
2020/12/24 07:48:02;;;;;;;337.17;106.27;;;;;;;2.25;100.00;96013.66;5070750;28;20199;-66
2020/12/24 07:50:32;;;;;;;451.73;128.37;;;;;;;2.32;100.00;96011.75;5070814;28;20584;-67
2020/12/24 07:52:59;;;;;;;391.70;116.60;;;;;;;2.23;100.00;96020.03;5070829;28;20223;-67
2020/12/24 07:55:26;;;;;;;413.30;113.73;;;;;;;2.25;100.00;96010.31;5070752;28;20757;-66
2020/12/24 07:58:06;;;;;;;401.87;133.93;;;;;;;2.60;100.00;96011.75;5070514;28;20201;-68
2020/12/24 08:00:40;;;;;;;443.73;130.83;;;;;;;2.79;100.00;96022.56;5070540;28;20202;-68
2020/12/24 08:03:13;;;;;;;419.17;132.60;;;;;;;2.86;100.00;96030.13;5070421;28;20196;-68
2020/12/24 08:05:40;;;;;;;336.73;98.57;;;;;;;2.88;100.00;96020.44;5069535;28;20235;-68
2020/12/24 08:08:06;;;;;;;203.77;80.00;;;;;;;3.02;100.00;96026.81;5070799;28;20192;-68
2020/12/24 08:10:40;;;;;;;177.67;55.87;;;;;;;3.21;100.00;96020.44;5070184;28;20658;-67
2020/12/24 08:13:08;;;;;;;187.60;51.60;;;;;;;3.39;100.00;96022.78;5070237;28;20678;-67
2020/12/24 08:15:40;;;;;;;129.03;43.60;;;;;;;3.75;100.00;96018.13;5070250;28;20200;-68
2020/12/24 08:18:09;;;;;;;87.00;39.17;;;;;;;3.95;100.00;96026.13;5070478;28;20222;-68
2020/12/24 08:20:46;;;;;;;141.40;51.73;;;;;;;4.05;100.00;96008.25;5070216;28;20200;-68
2020/12/24 08:23:19;;;;;;;167.83;62.07;;;;;;;4.13;100.00;96015.56;5070468;28;20246;-66
2020/12/24 08:25:48;;;;;;;167.47;73.90;;;;;;;4.07;100.00;96013.16;5070257;28;20274;-68
2020/12/24 08:28:16;;;;;;;228.37;95.13;;;;;;;4.19;100.00;96022.28;5070500;28;20192;-68
2020/12/24 08:30:46;;;;;;;258.30;106.13;;;;;;;4.24;100.00;96024.16;5070225;28;20572;-68
2020/12/24 08:33:14;;;;;;;280.83;111.17;;;;;;;4.26;100.00;96015.19;5070157;28;20625;-68
2020/12/24 08:35:41;;;;;;;385.17;176.03;;;;;;;4.30;100.00;96021.41;5070660;28;20718;-69
2020/12/24 08:38:15;;;;;;;248.17;112.73;;;;;;;4.38;100.00;96016.88;5070007;28;20569;-68
2020/12/24 08:40:42;;;;;;;149.47;68.13;;;;;;;4.47;100.00;96020.56;5070151;28;20191;-63
2020/12/24 08:43:11;;;;;;;191.03;79.30;;;;;;;4.55;100.00;96008.03;5069846;28;20231;-70
2020/12/24 08:45:45;;;;;;;200.70;83.80;;;;;;;4.60;100.00;96009.88;5069902;28;20224;-69
2020/12/24 08:48:27;;;;;;;249.00;112.50;;;;;;;4.69;100.00;96011.00;5070046;28;20533;-70
2020/12/24 08:50:55;;;;;;;142.77;51.00;;;;;;;4.71;100.00;96007.16;5069883;28;20680;-69
2020/12/24 08:53:25;;;;;;;85.77;34.73;;;;;;;4.81;100.00;96001.34;5069778;28;20230;-67
2020/12/24 08:55:52;;;;;;;80.07;43.23;;;;;;;4.78;100.00;95996.69;5069880;28;20196;-69
2020/12/24 08:58:20;;;;;;;75.93;39.93;;;;;;;4.98;100.00;95986.53;5069868;28;20196;-71
2020/12/24 09:00:47;;;;;;;94.67;54.63;;;;;;;5.09;100.00;95983.03;5069808;28;20211;-70
2020/12/24 09:03:24;;;;;;;63.60;37.27;;;;;;;5.19;100.00;95980.53;5069775;28;20195;-70
2020/12/24 09:05:51;;;;;;;81.17;46.27;;;;;;;5.24;100.00;95979.78;5069746;28;20239;-69
2020/12/24 09:08:34;;;;;;;69.37;42.53;;;;;;;5.48;100.00;95972.47;5069702;28;20204;-69
2020/12/24 09:11:01;;;;;;;81.07;45.97;;;;;;;5.56;100.00;95972.00;5068009;28;20648;-71
2020/12/24 09:13:28;;;;;;;86.63;44.37;;;;;;;5.52;100.00;95968.38;5069854;28;20192;-69
2020/12/24 09:15:55;;;;;;;75.90;39.70;;;;;;;5.57;100.00;95964.03;5069740;28;20203;-70
2020/12/24 09:18:22;;;;;;;63.47;34.70;;;;;;;5.60;100.00;95967.91;5072566;28;20204;-70
2020/12/24 09:20:48;;;;;;;67.37;34.13;;;;;;;5.59;100.00;95961.19;5073701;28;20192;-70
2020/12/24 09:23:16;;;;;;;73.77;44.70;;;;;;;5.62;100.00;95958.13;5073928;28;20240;-70
2020/12/24 09:25:45;;;;;;;107.43;41.07;;;;;;;5.55;100.00;95954.97;5073910;28;20227;-68
2020/12/24 09:28:22;;;;;;;101.67;39.73;;;;;;;5.58;100.00;95951.88;5073733;28;20261;-71
2020/12/24 09:30:50;;;;;;;112.23;55.73;;;;;;;5.53;100.00;95952.63;5073422;28;20230;-69
2020/12/24 09:33:17;;;;;;;92.30;46.10;;;;;;;5.52;100.00;95945.19;5073241;28;20196;-71
2020/12/24 09:35:44;;;;;;;104.07;44.27;;;;;;;5.58;100.00;95939.78;5073330;28;20224;-70
2020/12/24 09:38:11;;;;;;;96.60;49.03;;;;;;;5.72;100.00;95936.78;5073361;28;20200;-70
2020/12/24 09:40:39;;;;;;;85.93;48.87;;;;;;;5.84;100.00;95929.59;5073252;28;20193;-70
2020/12/24 09:43:07;;;;;;;119.93;59.43;;;;;;;5.97;100.00;95937.69;5073409;28;20318;-68
2020/12/24 09:45:35;;;;;;;112.67;59.23;;;;;;;5.89;100.00;95927.84;5073217;28;20253;-70
2020/12/24 09:48:01;;;;;;;99.13;47.80;;;;;;;5.78;100.00;95928.03;5073263;28;20193;-68
2020/12/24 09:50:28;;;;;;;108.23;53.73;;;;;;;5.78;100.00;95918.47;5073039;28;20199;-70
2020/12/24 09:52:55;;;;;;;143.03;74.47;;;;;;;5.92;100.00;95918.84;5073012;28;20773;-70
2020/12/24 09:55:22;;;;;;;114.03;50.80;;;;;;;6.13;100.00;95914.50;5072801;28;20204;-71
2020/12/24 09:57:49;;;;;;;117.87;60.20;;;;;;;6.23;100.00;95909.34;5073016;28;20195;-70
2020/12/24 10:00:17;;;;;;;77.17;43.60;;;;;;;6.41;100.00;95901.91;5073002;28;20203;-72
2020/12/24 10:02:43;;;;;;;89.00;47.20;;;;;;;6.48;100.00;95906.81;5072866;28;21039;-72
2020/12/24 10:05:10;;;;;;;70.77;38.80;;;;;;;6.62;100.00;95887.22;5072933;28;20695;-70
2020/12/24 10:07:37;;;;;;;70.40;41.03;;;;;;;6.67;99.97;95882.06;5072792;28;20230;-71
2020/12/24 10:10:05;;;;;;;80.57;45.03;;;;;;;6.81;100.00;95877.16;5072727;28;20193;-71
2020/12/24 10:12:32;;;;;;;75.70;45.73;;;;;;;6.87;99.87;95871.69;5072768;28;20579;-70
2020/12/24 10:14:59;;;;;;;87.20;47.50;;;;;;;7.02;99.71;95859.81;5072672;28;20205;-71
2020/12/24 10:17:26;;;;;;;103.93;53.47;;;;;;;7.18;99.54;95853.56;5072630;28;20188;-72
2020/12/24 10:19:55;;;;;;;114.17;56.90;;;;;;;7.37;99.55;95849.41;5072594;28;20271;-71
2020/12/24 10:22:26;;;;;;;552.63;241.97;;;;;;;7.62;99.65;95841.53;5072585;28;20236;-72
2020/12/24 10:24:53;;;;;;;153.50;66.57;;;;;;;7.93;97.76;95839.56;5072385;28;20196;-71
2020/12/24 10:27:20;;;;;;;178.10;74.40;;;;;;;8.08;97.28;95846.47;5072261;28;20239;-72
2020/12/24 10:29:46;;;;;;;73.87;40.57;;;;;;;8.20;96.08;95844.31;5071741;28;20225;-67
2020/12/24 10:32:13;;;;;;;104.77;47.77;;;;;;;8.21;95.32;95830.34;5072598;28;20197;-72
2020/12/24 10:34:41;;;;;;;68.13;39.13;;;;;;;8.30;97.07;95820.22;5072550;28;20203;-71
2020/12/24 10:37:08;;;;;;;62.53;36.17;;;;;;;8.53;96.93;95822.09;5072104;28;20223;-72
2020/12/24 10:39:35;;;;;;;63.63;33.93;;;;;;;8.73;96.45;95811.56;5072088;28;20196;-72
2020/12/24 10:42:02;;;;;;;479.30;180.00;;;;;;;8.92;95.16;95809.03;5072017;28;20625;-72
2020/12/24 10:44:29;;;;;;;172.70;62.70;;;;;;;9.05;95.13;95809.19;5072066;28;20188;-71
2020/12/24 10:46:56;;;;;;;53.17;29.60;;;;;;;8.98;94.56;95807.94;5071986;28;20719;-72
2020/12/24 10:49:23;;;;;;;51.67;29.57;;;;;;;9.02;96.07;95803.75;5071953;28;20204;-72
2020/12/24 10:51:50;;;;;;;361.70;121.27;;;;;;;9.28;94.98;95805.03;5072077;28;20279;-71
2020/12/24 10:54:19;;;;;;;442.57;149.10;;;;;;;9.53;94.66;95793.59;5072025;28;20205;-73
2020/12/24 10:56:46;;;;;;;52.67;30.27;;;;;;;9.72;93.68;95798.78;5072105;28;20212;-72
2020/12/24 10:59:14;;;;;;;61.57;35.07;;;;;;;9.80;93.15;95791.16;5071882;28;20200;-73
2020/12/24 11:01:46;;;;;;;90.90;41.83;;;;;;;9.98;91.99;95794.03;5071669;28;20283;-73
2020/12/24 11:04:13;;;;;;;52.57;30.53;;;;;;;10.12;90.85;95785.25;5071850;28;20205;-72
2020/12/24 11:06:43;;;;;;;83.90;39.97;;;;;;;10.11;90.41;95781.09;5071592;28;20220;-73
2020/12/24 11:09:11;;;;;;;68.03;34.93;;;;;;;10.25;88.40;95787.19;5072004;28;20228;-73
2020/12/24 11:11:39;;;;;;;55.07;33.80;;;;;;;10.24;86.86;95780.44;5071566;28;20203;-73
2020/12/24 11:14:06;;;;;;;48.60;29.50;;;;;;;10.28;86.59;95778.81;5071581;28;20200;-73
2020/12/24 11:16:35;;;;;;;67.47;36.00;;;;;;;10.40;87.34;95769.81;5071563;28;20245;-73
2020/12/24 11:19:02;;;;;;;93.17;43.27;;;;;;;10.44;87.70;95765.56;5071509;28;20193;-73